Penysarn, United Kingdom
Current Conditions -  °F | °C
As of 6:50 PM on Thursday 23 Oct 2014 (Local Time) from EGOV Reporting Station
Broken Clouds Broken Clouds  
Wind Chill: 59°   Ceiling: 4200
Heat Index: 59°   Visibility: 6mi
Dew Point: 55°   Wind: 24mph
Humidity: 88%   Direction: 200°SSW
Pressure: 29.85"   Gusts: NA
Location:  53.39°N, 4.32°W
Report Text: EGOV 231750Z 20021KT 9999 FEW012 BKN042 15/13 Q1011 BLU TEMPO SCT012 GRN
Loading
Personal Weather Stations






























Interactive Weather Map
Tropical Storm Tracking
New forecast layout! Learn more

10-Day Weather Forecast

Advertisements
Track Severe Weather on mobile